Aérodrome :
LOGIN :

S'inscrire | Disclaimer

   EN    FR    IT 

 










Légende :    VFR   VFR Marginal   IFR   IFR Intensif   IFR Très Intensif
Visi : 
Plafond : 
>= 8 km
>= 3000ft
5 à 8 km
1000 à 3000 ft
1500m à 5 km
500 à 1000 ft
800 à 1500m
200 à 500 ft
< 800m
< 200 ft
Symboles :   Orages  Brouillard  Fortes neiges  Fortes précipitations  Vent > 20 kt
SIGMETs :   Divers  Orages  Givrage  Turbulence  Onde Orograph.  Cendres Volcan.






- Altitude de l'aérodrome : 336 ft
- Code IATA : GCI


EGJB - Guernsey

DERNIER METAR :
  • 041220Z 20011KT 9999 FEW005 BKN008 16/14 Q1019

METARs EXPIRÉS :
  • 041150Z 21011KT 9999 8000NW -DZ BKN008 15/13 Q1019
  • 041120Z 21011KT 9999 BKN010 15/13 Q1020
  • 041050Z 20012KT 9999 SCT010 BKN024 16/13 Q1020
  • 041020Z 20013KT 9999 SCT010 BKN020 15/13 Q1020
  • 040950Z 21012KT 9999 SCT010 BKN020 15/13 Q1019

TAF AMD TAF EGJB
Valide du 04 à 12h jusqu'au 04 à 21h UTC


041156Z 0412/0421 21010KT 9999 SCT010 BKN022
TEMPO 0412/0415 BKN009
ATIS : +44 1481 238 957



MET'MAP, la Météo Aéronautique d'un coup d'oeil ! - Copyright ORBIFLY Décembre 2007 - Disclaimer

ORBIFLY MET'MAP TEAM :

Programmation & Développement : Alexandra Zaïnal
Sur une idée originale de : Baudouin d'Aumeries
Soutien technique & logistique : Manuel Goepfert
Assistance : Marc-Olivier Méhu




SOURCES & CREDITS :

   NOAA